Time,TemperatureF,DewpointF,PressureIn,WindDirection,WindDirectionDegrees,WindSpeedMPH,WindSpeedGustMPH,Humidity,HourlyPrecipIn,Conditions,Clouds,dailyrainin,SoftwareType,DateUTC
2016-07-30 00:05:00,71.4,70.2,29.90,SE,128,0.0,0.0,96,0.00,,,0.00,Wunderground v.1.15,2016-07-30 04:05:00,
2016-07-30 00:10:00,71.4,70.2,29.90,SE,128,0.0,2.0,96,0.00,,,0.00,Wunderground v.1.15,2016-07-30 04:10:00,
2016-07-30 00:16:00,71.5,70.3,29.90,SE,128,0.0,0.0,96,0.00,,,0.00,Wunderground v.1.15,2016-07-30 04:16:00,
2016-07-30 00:21:00,71.4,70.2,29.90,SE,128,1.0,1.0,96,0.00,,,0.00,Wunderground v.1.15,2016-07-30 04:21:00,
2016-07-30 00:27:00,71.2,70.0,29.90,SE,128,1.0,3.0,96,0.00,,,0.00,Wunderground v.1.15,2016-07-30 04:27:00,
2016-07-30 00:33:00,71.1,69.9,29.90,ESE,123,4.0,4.0,96,0.00,,,0.00,Wunderground v.1.15,2016-07-30 04:33:00,
2016-07-30 00:38:00,71.0,69.8,29.90,ESE,123,0.0,3.0,96,0.00,,,0.00,Wunderground v.1.15,2016-07-30 04:38:00,
2016-07-30 00:43:00,70.9,69.7,29.90,ESE,123,2.0,3.0,96,0.00,,,0.00,Wunderground v.1.15,2016-07-30 04:43:00,
2016-07-30 00:49:00,70.8,69.6,29.90,ESE,123,2.0,3.0,96,0.00,,,0.00,Wunderground v.1.15,2016-07-30 04:49:00,
2016-07-30 00:54:00,70.7,69.5,29.89,ESE,123,0.0,1.0,96,0.00,,,0.00,Wunderground v.1.15,2016-07-30 04:54:00,
2016-07-30 00:59:00,70.7,69.5,29.90,ESE,123,0.0,1.0,96,0.00,,,0.00,Wunderground v.1.15,2016-07-30 04:59:00,
2016-07-30 01:04:00,70.7,69.5,29.90,ESE,123,0.0,0.0,96,0.00,,,0.00,Wunderground v.1.15,2016-07-30 05:04:00,
2016-07-30 01:09:00,70.7,69.5,29.90,ESE,123,1.0,1.0,96,0.00,,,0.00,Wunderground v.1.15,2016-07-30 05:09:00,
2016-07-30 01:15:00,70.7,69.5,29.90,ESE,123,0.0,0.0,96,0.00,,,0.00,Wunderground v.1.15,2016-07-30 05:15:00,
2016-07-30 01:20:00,70.7,69.5,29.90,ESE,123,0.0,0.0,96,0.00,,,0.00,Wunderground v.1.15,2016-07-30 05:20:00,
2016-07-30 01:25:00,70.8,69.6,29.89,ESE,123,0.0,0.0,96,0.00,,,0.00,Wunderground v.1.15,2016-07-30 05:25:00,
2016-07-30 01:31:00,70.7,69.5,29.89,ESE,123,0.0,0.0,96,0.00,,,0.00,Wunderground v.1.15,2016-07-30 05:31:00,
2016-07-30 01:36:00,70.7,69.5,29.89,ESE,123,0.0,0.0,96,0.00,,,0.00,Wunderground v.1.15,2016-07-30 05:36:00,
2016-07-30 01:41:00,70.6,69.4,29.89,ESE,123,0.0,0.0,96,0.00,,,0.00,Wunderground v.1.15,2016-07-30 05:41:00,
2016-07-30 01:46:00,70.6,69.4,29.89,ESE,123,0.0,0.0,96,0.00,,,0.00,Wunderground v.1.15,2016-07-30 05:46:00,
2016-07-30 01:52:00,70.6,69.4,29.89,ESE,123,0.0,0.0,96,0.00,,,0.00,Wunderground v.1.15,2016-07-30 05:52:00,
2016-07-30 01:58:00,70.6,69.7,29.89,ESE,123,0.0,0.0,97,0.00,,,0.00,Wunderground v.1.15,2016-07-30 05:58:00,
2016-07-30 02:03:00,70.6,69.7,29.89,ESE,123,0.0,0.0,97,0.00,,,0.00,Wunderground v.1.15,2016-07-30 06:03:00,
2016-07-30 02:06:00,70.7,69.8,29.89,ESE,123,0.0,0.0,97,0.00,,,0.00,Wunderground v.1.15,2016-07-30 06:06:00,
2016-07-30 02:11:00,70.7,69.8,29.89,ESE,123,0.0,0.0,97,0.00,,,0.00,Wunderground v.1.15,2016-07-30 06:11:00,
2016-07-30 02:16:00,70.7,69.8,29.89,ESE,123,0.0,1.0,97,0.00,,,0.00,Wunderground v.1.15,2016-07-30 06:16:00,
2016-07-30 02:21:00,70.6,69.7,29.88,ESE,123,0.0,2.0,97,0.00,,,0.00,Wunderground v.1.15,2016-07-30 06:21:00,
2016-07-30 02:26:00,70.6,69.7,29.88,ESE,123,0.0,0.0,97,0.00,,,0.00,Wunderground v.1.15,2016-07-30 06:26:00,
2016-07-30 02:31:00,70.5,69.6,29.88,ESE,123,0.0,0.0,97,0.00,,,0.00,Wunderground v.1.15,2016-07-30 06:31:00,
2016-07-30 02:36:00,70.4,69.5,29.88,ESE,123,0.0,0.0,97,0.00,,,0.00,Wunderground v.1.15,2016-07-30 06:36:00,
2016-07-30 02:41:00,70.5,69.6,29.88,ESE,123,0.0,0.0,97,0.00,,,0.00,Wunderground v.1.15,2016-07-30 06:41:00,
2016-07-30 02:46:00,70.5,69.6,29.88,ESE,123,0.0,0.0,97,0.00,,,0.00,Wunderground v.1.15,2016-07-30 06:46:00,
2016-07-30 02:51:00,70.5,69.6,29.88,ESE,123,0.0,0.0,97,0.00,,,0.00,Wunderground v.1.15,2016-07-30 06:51:00,
2016-07-30 02:56:00,70.5,69.6,29.87,ESE,123,0.0,0.0,97,0.00,,,0.00,Wunderground v.1.15,2016-07-30 06:56:00,
2016-07-30 03:01:00,70.4,69.5,29.87,ESE,123,0.0,0.0,97,0.00,,,0.00,Wunderground v.1.15,2016-07-30 07:01:00,
2016-07-30 03:06:00,70.4,69.5,29.87,ESE,123,0.0,0.0,97,0.00,,,0.00,Wunderground v.1.15,2016-07-30 07:06:00,
2016-07-30 03:11:00,70.4,69.5,29.87,ESE,123,0.0,0.0,97,0.00,,,0.00,Wunderground v.1.15,2016-07-30 07:11:00,
2016-07-30 03:16:00,70.4,69.5,29.87,ESE,123,0.0,0.0,97,0.00,,,0.00,Wunderground v.1.15,2016-07-30 07:16:00,
2016-07-30 03:21:00,70.4,69.5,29.88,ESE,123,0.0,0.0,97,0.00,,,0.00,Wunderground v.1.15,2016-07-30 07:21:00,
2016-07-30 03:26:00,70.5,69.6,29.87,ESE,123,0.0,0.0,97,0.00,,,0.00,Wunderground v.1.15,2016-07-30 07:26:00,
2016-07-30 03:31:00,70.5,69.6,29.87,ESE,123,0.0,0.0,97,0.00,,,0.00,Wunderground v.1.15,2016-07-30 07:31:00,
2016-07-30 03:36:00,70.5,69.6,29.87,ESE,123,0.0,0.0,97,0.00,,,0.00,Wunderground v.1.15,2016-07-30 07:36:00,
2016-07-30 03:41:00,70.4,69.5,29.87,ESE,123,0.0,0.0,97,0.00,,,0.00,Wunderground v.1.15,2016-07-30 07:41:00,
2016-07-30 03:46:00,70.4,69.5,29.87,ESE,123,0.0,0.0,97,0.00,,,0.00,Wunderground v.1.15,2016-07-30 07:46:00,
2016-07-30 03:51:00,70.4,69.5,29.87,ESE,123,0.0,0.0,97,0.00,,,0.00,Wunderground v.1.15,2016-07-30 07:51:00,
2016-07-30 03:56:00,70.4,69.5,29.87,ESE,123,0.0,0.0,97,0.00,,,0.00,Wunderground v.1.15,2016-07-30 07:56:00,
2016-07-30 04:01:00,70.4,69.5,29.87,ESE,123,0.0,0.0,97,0.00,,,0.00,Wunderground v.1.15,2016-07-30 08:01:00,
2016-07-30 04:06:00,70.4,69.5,29.87,ESE,123,0.0,0.0,97,0.00,,,0.00,Wunderground v.1.15,2016-07-30 08:06:00,
2016-07-30 04:11:00,70.4,69.5,29.87,ESE,123,0.0,0.0,97,0.00,,,0.00,Wunderground v.1.15,2016-07-30 08:11:00,
2016-07-30 04:16:00,70.4,69.5,29.87,ESE,123,0.0,0.0,97,0.00,,,0.00,Wunderground v.1.15,2016-07-30 08:16:00,
2016-07-30 04:21:00,70.4,69.5,29.87,ESE,123,0.0,0.0,97,0.00,,,0.00,Wunderground v.1.15,2016-07-30 08:21:00,
2016-07-30 04:26:00,70.5,69.6,29.87,ESE,123,0.0,0.0,97,0.00,,,0.00,Wunderground v.1.15,2016-07-30 08:26:00,
2016-07-30 04:31:00,70.5,69.6,29.87,ESE,123,0.0,0.0,97,0.00,,,0.00,Wunderground v.1.15,2016-07-30 08:31:00,
2016-07-30 04:36:00,70.5,69.6,29.87,ESE,123,0.0,0.0,97,0.00,,,0.00,Wunderground v.1.15,2016-07-30 08:36:00,
2016-07-30 04:41:00,70.4,69.5,29.87,ESE,123,0.0,0.0,97,0.00,,,0.00,Wunderground v.1.15,2016-07-30 08:41:00,
2016-07-30 04:46:00,70.4,69.5,29.88,ESE,123,0.0,0.0,97,0.00,,,0.00,Wunderground v.1.15,2016-07-30 08:46:00,
2016-07-30 04:51:00,70.4,69.5,29.88,ESE,123,0.0,0.0,97,0.00,,,0.00,Wunderground v.1.15,2016-07-30 08:51:00,
2016-07-30 04:56:00,70.3,69.4,29.88,ESE,123,0.0,0.0,97,0.00,,,0.00,Wunderground v.1.15,2016-07-30 08:56:00,
2016-07-30 05:02:00,70.3,69.4,29.88,ESE,123,0.0,0.0,97,0.00,,,0.00,Wunderground v.1.15,2016-07-30 09:02:00,
2016-07-30 05:07:00,70.2,69.3,29.88,ESE,123,0.0,0.0,97,0.00,,,0.00,Wunderground v.1.15,2016-07-30 09:07:00,
2016-07-30 05:12:00,70.2,69.3,29.88,ESE,123,0.0,0.0,97,0.00,,,0.00,Wunderground v.1.15,2016-07-30 09:12:00,
2016-07-30 05:17:00,70.2,69.3,29.88,ESE,123,0.0,0.0,97,0.00,,,0.00,Wunderground v.1.15,2016-07-30 09:17:00,
2016-07-30 05:22:00,70.1,69.2,29.88,ESE,123,0.0,0.0,97,0.00,,,0.00,Wunderground v.1.15,2016-07-30 09:22:00,
2016-07-30 05:27:00,70.1,69.2,29.88,ESE,123,0.0,0.0,97,0.00,,,0.00,Wunderground v.1.15,2016-07-30 09:27:00,
2016-07-30 05:32:00,70.1,69.2,29.89,ESE,123,0.0,0.0,97,0.00,,,0.00,Wunderground v.1.15,2016-07-30 09:32:00,
2016-07-30 05:37:00,70.0,69.1,29.88,ESE,123,0.0,0.0,97,0.00,,,0.00,Wunderground v.1.15,2016-07-30 09:37:00,
2016-07-30 05:42:00,70.0,69.1,29.89,ESE,123,0.0,0.0,97,0.00,,,0.00,Wunderground v.1.15,2016-07-30 09:42:00,
2016-07-30 05:47:00,69.9,69.0,29.89,ESE,123,0.0,0.0,97,0.00,,,0.00,Wunderground v.1.15,2016-07-30 09:47:00,
2016-07-30 05:52:00,69.9,69.0,29.89,ESE,123,0.0,0.0,97,0.00,,,0.00,Wunderground v.1.15,2016-07-30 09:52:00,
2016-07-30 05:57:00,69.9,69.0,29.89,ESE,123,0.0,0.0,97,0.00,,,0.00,Wunderground v.1.15,2016-07-30 09:57:00,
2016-07-30 06:02:00,69.9,69.0,29.89,ESE,123,0.0,0.0,97,0.00,,,0.00,Wunderground v.1.15,2016-07-30 10:02:00,
2016-07-30 06:07:00,69.9,69.0,29.90,ESE,123,0.0,0.0,97,0.00,,,0.00,Wunderground v.1.15,2016-07-30 10:07:00,
2016-07-30 06:12:00,69.9,69.0,29.90,ESE,123,0.0,2.0,97,0.00,,,0.00,Wunderground v.1.15,2016-07-30 10:12:00,
2016-07-30 06:17:00,69.8,68.9,29.89,ESE,123,0.0,1.0,97,0.00,,,0.00,Wunderground v.1.15,2016-07-30 10:17:00,
2016-07-30 06:22:00,69.9,69.0,29.90,ESE,123,0.0,2.0,97,0.00,,,0.00,Wunderground v.1.15,2016-07-30 10:22:00,
2016-07-30 06:27:00,70.0,69.1,29.90,ESE,123,0.0,1.0,97,0.00,,,0.00,Wunderground v.1.15,2016-07-30 10:27:00,
2016-07-30 06:32:00,70.1,69.2,29.90,ESE,123,1.0,3.0,97,0.00,,,0.00,Wunderground v.1.15,2016-07-30 10:32:00,
2016-07-30 06:37:00,70.1,69.2,29.90,ESE,123,0.0,2.0,97,0.00,,,0.00,Wunderground v.1.15,2016-07-30 10:37:00,
2016-07-30 06:42:00,70.1,69.2,29.91,ESE,123,0.0,2.0,97,0.00,,,0.00,Wunderground v.1.15,2016-07-30 10:42:00,
2016-07-30 06:47:00,70.2,69.3,29.91,ESE,123,0.0,1.0,97,0.00,,,0.00,Wunderground v.1.15,2016-07-30 10:47:00,
2016-07-30 06:52:00,70.2,69.3,29.91,ESE,123,0.0,3.0,97,0.00,,,0.00,Wunderground v.1.15,2016-07-30 10:52:00,
2016-07-30 06:57:00,70.2,69.3,29.91,ESE,123,0.0,0.0,97,0.00,,,0.00,Wunderground v.1.15,2016-07-30 10:57:00,
2016-07-30 07:02:00,70.2,69.3,29.91,ESE,123,0.0,0.0,97,0.00,,,0.00,Wunderground v.1.15,2016-07-30 11:02:00,
2016-07-30 07:08:00,70.2,69.3,29.91,ESE,123,0.0,0.0,97,0.00,,,0.00,Wunderground v.1.15,2016-07-30 11:08:00,
2016-07-30 07:13:00,70.2,69.3,29.91,ESE,123,0.0,0.0,97,0.00,,,0.00,Wunderground v.1.15,2016-07-30 11:13:00,
2016-07-30 07:18:00,70.3,69.4,29.92,ESE,123,0.0,0.0,97,0.00,,,0.00,Wunderground v.1.15,2016-07-30 11:18:00,
2016-07-30 07:23:00,70.4,69.5,29.92,ESE,123,0.0,0.0,97,0.00,,,0.00,Wunderground v.1.15,2016-07-30 11:23:00,
2016-07-30 07:28:00,70.5,69.6,29.92,ESE,123,0.0,0.0,97,0.00,,,0.00,Wunderground v.1.15,2016-07-30 11:28:00,
2016-07-30 07:33:00,70.6,69.7,29.92,ESE,123,0.0,3.0,97,0.00,,,0.00,Wunderground v.1.15,2016-07-30 11:33:00,
2016-07-30 07:38:00,70.7,69.8,29.92,ESE,123,0.0,1.0,97,0.00,,,0.00,Wunderground v.1.15,2016-07-30 11:38:00,
2016-07-30 07:43:00,70.8,69.9,29.92,ESE,123,0.0,1.0,97,0.00,,,0.00,Wunderground v.1.15,2016-07-30 11:43:00,
2016-07-30 07:48:00,70.8,69.9,29.92,ESE,123,0.0,3.0,97,0.00,,,0.00,Wunderground v.1.15,2016-07-30 11:48:00,
2016-07-30 07:53:00,70.9,70.0,29.92,ESE,123,1.0,3.0,97,0.00,,,0.00,Wunderground v.1.15,2016-07-30 11:53:00,
2016-07-30 07:58:00,71.0,70.1,29.92,ESE,123,0.0,1.0,97,0.00,,,0.00,Wunderground v.1.15,2016-07-30 11:58:00,
2016-07-30 08:03:00,71.1,70.2,29.92,ESE,123,0.0,1.0,97,0.00,,,0.00,Wunderground v.1.15,2016-07-30 12:03:00,
2016-07-30 08:08:00,71.1,70.2,29.92,ESE,123,0.0,2.0,97,0.00,,,0.00,Wunderground v.1.15,2016-07-30 12:08:00,
2016-07-30 08:13:00,71.2,70.3,29.92,ESE,123,1.0,2.0,97,0.00,,,0.00,Wunderground v.1.15,2016-07-30 12:13:00,
2016-07-30 08:18:00,71.3,70.4,29.93,ESE,123,1.0,2.0,97,0.00,,,0.00,Wunderground v.1.15,2016-07-30 12:18:00,
2016-07-30 08:23:00,71.3,70.4,29.92,SE,133,0.0,4.0,97,0.00,,,0.00,Wunderground v.1.15,2016-07-30 12:23:00,
2016-07-30 08:28:00,71.3,70.4,29.93,SE,134,0.0,3.0,97,0.00,,,0.00,Wunderground v.1.15,2016-07-30 12:28:00,
2016-07-30 08:34:00,71.4,70.5,29.93,SE,134,0.0,3.0,97,0.00,,,0.00,Wunderground v.1.15,2016-07-30 12:34:00,
2016-07-30 08:39:00,71.4,70.5,29.93,SE,134,1.0,2.0,97,0.00,,,0.00,Wunderground v.1.15,2016-07-30 12:39:00,
2016-07-30 08:44:00,71.7,70.8,29.93,SE,134,1.0,3.0,97,0.00,,,0.00,Wunderground v.1.15,2016-07-30 12:44:00,
2016-07-30 08:49:00,71.8,70.9,29.93,SE,134,0.0,3.0,97,0.00,,,0.00,Wunderground v.1.15,2016-07-30 12:49:00,
2016-07-30 08:54:00,71.8,70.9,29.93,SE,134,0.0,3.0,97,0.00,,,0.00,Wunderground v.1.15,2016-07-30 12:54:00,
2016-07-30 08:59:00,72.0,71.1,29.93,SE,134,1.0,2.0,97,0.00,,,0.00,Wunderground v.1.15,2016-07-30 12:59:00,
2016-07-30 09:04:00,72.2,71.3,29.93,SE,134,0.0,2.0,97,0.00,,,0.00,Wunderground v.1.15,2016-07-30 13:04:00,
2016-07-30 09:09:00,72.2,71.3,29.94,SE,134,1.0,4.0,97,0.00,,,0.00,Wunderground v.1.15,2016-07-30 13:09:00,
2016-07-30 09:13:00,72.1,71.2,29.94,SE,134,0.0,4.0,97,0.00,,,0.00,Wunderground v.1.15,2016-07-30 13:13:00,
2016-07-30 09:19:00,72.4,71.5,29.94,SE,134,0.0,2.0,97,0.00,,,0.00,Wunderground v.1.15,2016-07-30 13:19:00,
2016-07-30 09:24:00,72.6,71.7,29.94,SE,134,1.0,4.0,97,0.00,,,0.00,Wunderground v.1.15,2016-07-30 13:24:00,
2016-07-30 09:29:00,72.5,71.6,29.93,SE,139,0.0,3.0,97,0.00,,,0.00,Wunderground v.1.15,2016-07-30 13:29:00,
2016-07-30 09:34:00,72.7,71.8,29.94,SE,139,0.0,3.0,97,0.00,,,0.00,Wunderground v.1.15,2016-07-30 13:34:00,
2016-07-30 09:39:00,72.8,71.9,29.94,SE,139,1.0,2.0,97,0.00,,,0.00,Wunderground v.1.15,2016-07-30 13:39:00,
2016-07-30 09:44:00,72.9,72.0,29.94,SE,140,3.0,4.0,97,0.00,,,0.00,Wunderground v.1.15,2016-07-30 13:44:00,
2016-07-30 09:48:00,72.8,71.9,29.94,South,181,3.0,6.0,97,0.00,,,0.00,Wunderground v.1.15,2016-07-30 13:48:00,
2016-07-30 09:54:00,72.9,72.0,29.94,South,181,2.0,6.0,97,0.00,,,0.00,Wunderground v.1.15,2016-07-30 13:54:00,
2016-07-30 09:59:00,73.0,72.1,29.94,South,181,1.0,3.0,97,0.00,,,0.00,Wunderground v.1.15,2016-07-30 13:59:00,
2016-07-30 10:04:00,73.3,72.4,29.94,South,181,3.0,4.0,97,0.00,,,0.00,Wunderground v.1.15,2016-07-30 14:04:00,
2016-07-30 10:09:00,73.5,72.3,29.94,South,182,3.0,4.0,96,0.00,,,0.00,Wunderground v.1.15,2016-07-30 14:09:00,
2016-07-30 10:14:00,73.5,72.3,29.94,South,182,2.0,4.0,96,0.00,,,0.00,Wunderground v.1.15,2016-07-30 14:14:00,
2016-07-30 10:19:00,73.6,72.4,29.94,South,190,4.0,5.0,96,0.00,,,0.00,Wunderground v.1.15,2016-07-30 14:19:00,
2016-07-30 10:24:00,73.8,72.3,29.94,South,190,1.0,5.0,95,0.00,,,0.00,Wunderground v.1.15,2016-07-30 14:24:00,
2016-07-30 10:29:00,74.1,72.6,29.94,SSW,196,1.0,4.0,95,0.00,,,0.00,Wunderground v.1.15,2016-07-30 14:29:00,
2016-07-30 10:34:00,74.3,72.5,29.95,SSW,197,3.0,4.0,94,0.00,,,0.00,Wunderground v.1.15,2016-07-30 14:34:00,
2016-07-30 10:39:00,74.5,72.7,29.95,SSW,197,3.0,4.0,94,0.00,,,0.00,Wunderground v.1.15,2016-07-30 14:39:00,
2016-07-30 10:44:00,74.8,73.0,29.95,SSW,200,2.0,6.0,94,0.00,,,0.00,Wunderground v.1.15,2016-07-30 14:44:00,
2016-07-30 10:49:00,75.3,73.1,29.95,SSW,200,0.0,3.0,93,0.00,,,0.00,Wunderground v.1.15,2016-07-30 14:49:00,
2016-07-30 10:54:00,75.2,72.7,29.95,SSW,200,1.0,4.0,92,0.00,,,0.00,Wunderground v.1.15,2016-07-30 14:54:00,
2016-07-30 10:59:00,75.5,73.0,29.95,SSW,200,1.0,4.0,92,0.00,,,0.00,Wunderground v.1.15,2016-07-30 14:59:00,
2016-07-30 11:04:00,75.4,72.6,29.95,WSW,248,3.0,8.0,91,0.00,,,0.00,Wunderground v.1.15,2016-07-30 15:04:00,
2016-07-30 11:09:00,75.8,73.3,29.95,WSW,248,0.0,5.0,92,0.00,,,0.00,Wunderground v.1.15,2016-07-30 15:09:00,
2016-07-30 11:14:00,76.4,73.6,29.95,WSW,248,2.0,5.0,91,0.00,,,0.00,Wunderground v.1.15,2016-07-30 15:14:00,
2016-07-30 11:19:00,77.0,73.8,29.95,WSW,248,4.0,5.0,90,0.00,,,0.00,Wunderground v.1.15,2016-07-30 15:19:00,
2016-07-30 11:24:00,77.1,73.3,29.95,West,269,2.0,3.0,88,0.00,,,0.00,Wunderground v.1.15,2016-07-30 15:24:00,
2016-07-30 11:29:00,77.3,73.1,29.95,West,265,2.0,6.0,87,0.00,,,0.00,Wunderground v.1.15,2016-07-30 15:29:00,
2016-07-30 11:34:00,77.8,73.6,29.95,West,265,4.0,4.0,87,0.00,,,0.00,Wunderground v.1.15,2016-07-30 15:34:00,
2016-07-30 11:40:00,77.8,73.3,29.95,West,265,0.0,5.0,86,0.00,,,0.00,Wunderground v.1.15,2016-07-30 15:40:00,
2016-07-30 11:45:00,78.4,73.9,29.95,West,265,2.0,5.0,86,0.00,,,0.00,Wunderground v.1.15,2016-07-30 15:45:00,
2016-07-30 11:50:00,78.5,73.3,29.95,West,263,0.0,7.0,84,0.00,,,0.00,Wunderground v.1.15,2016-07-30 15:50:00,
2016-07-30 11:55:00,79.1,73.5,29.95,SW,231,2.0,6.0,83,0.00,,,0.00,Wunderground v.1.15,2016-07-30 15:55:00,
2016-07-30 12:00:00,79.1,72.8,29.95,West,269,2.0,7.0,81,0.00,,,0.00,Wunderground v.1.15,2016-07-30 16:00:00,
2016-07-30 12:05:00,78.7,72.7,29.95,West,262,4.0,7.0,82,0.00,,,0.00,Wunderground v.1.15,2016-07-30 16:05:00,
2016-07-30 12:10:00,78.6,73.0,29.95,West,262,7.0,7.0,83,0.00,,,0.00,Wunderground v.1.15,2016-07-30 16:10:00,
2016-07-30 12:15:00,79.1,73.1,29.95,West,264,2.0,4.0,82,0.00,,,0.00,Wunderground v.1.15,2016-07-30 16:15:00,
2016-07-30 12:20:00,79.8,73.1,29.95,West,259,5.0,5.0,80,0.00,,,0.00,Wunderground v.1.15,2016-07-30 16:20:00,
2016-07-30 12:25:00,80.6,73.5,29.95,WSW,257,4.0,5.0,79,0.00,,,0.00,Wunderground v.1.15,2016-07-30 16:25:00,
2016-07-30 12:30:00,80.3,72.4,29.95,West,265,3.0,7.0,77,0.00,,,0.00,Wunderground v.1.15,2016-07-30 16:30:00,
2016-07-30 12:35:00,80.5,73.0,29.95,West,265,3.0,3.0,78,0.00,,,0.00,Wunderground v.1.15,2016-07-30 16:35:00,
2016-07-30 12:40:00,80.7,72.8,29.95,West,259,6.0,6.0,77,0.00,,,0.00,Wunderground v.1.15,2016-07-30 16:40:00,
2016-07-30 12:45:00,80.7,72.0,29.95,WSW,249,6.0,7.0,75,0.00,,,0.00,Wunderground v.1.15,2016-07-30 16:45:00,
2016-07-30 12:51:00,80.5,72.2,29.95,SW,216,0.0,8.0,76,0.00,,,0.00,Wunderground v.1.15,2016-07-30 16:51:00,
2016-07-30 12:56:00,80.3,72.0,29.95,SW,215,4.0,6.0,76,0.00,,,0.00,Wunderground v.1.15,2016-07-30 16:56:00,
2016-07-30 13:01:00,80.5,72.6,29.95,SW,217,4.0,6.0,77,0.00,,,0.00,Wunderground v.1.15,2016-07-30 17:01:00,
2016-07-30 13:06:00,80.9,72.2,29.95,SW,217,2.0,4.0,75,0.00,,,0.00,Wunderground v.1.15,2016-07-30 17:06:00,
2016-07-30 13:11:00,81.1,72.0,29.95,SW,220,2.0,7.0,74,0.00,,,0.00,Wunderground v.1.15,2016-07-30 17:11:00,
2016-07-30 13:16:00,81.6,72.9,29.95,SW,220,1.0,6.0,75,0.00,,,0.00,Wunderground v.1.15,2016-07-30 17:16:00,
2016-07-30 13:21:00,82.3,73.6,29.94,SW,222,5.0,6.0,75,0.00,,,0.00,Wunderground v.1.15,2016-07-30 17:21:00,
2016-07-30 13:26:00,82.5,71.7,29.94,SW,221,0.0,2.0,70,0.00,,,0.00,Wunderground v.1.15,2016-07-30 17:26:00,
2016-07-30 13:32:00,82.6,72.2,29.94,West,262,3.0,6.0,71,0.00,,,0.00,Wunderground v.1.15,2016-07-30 17:32:00,
2016-07-30 13:37:00,82.1,71.8,29.94,West,261,3.0,6.0,71,0.00,,,0.00,Wunderground v.1.15,2016-07-30 17:37:00,
2016-07-30 13:42:00,82.5,72.6,29.94,WSW,257,0.0,6.0,72,0.00,,,0.00,Wunderground v.1.15,2016-07-30 17:42:00,
2016-07-30 13:47:00,83.7,73.3,29.94,SW,236,7.0,7.0,71,0.00,,,0.00,Wunderground v.1.15,2016-07-30 17:47:00,
2016-07-30 13:52:00,84.0,72.7,29.93,SW,236,4.0,7.0,69,0.00,,,0.00,Wunderground v.1.15,2016-07-30 17:52:00,
2016-07-30 13:57:00,83.5,71.4,29.94,WSW,251,5.0,8.0,67,0.00,,,0.00,Wunderground v.1.15,2016-07-30 17:57:00,
2016-07-30 14:02:00,83.5,71.8,29.93,WNW,299,1.0,9.0,68,0.00,,,0.00,Wunderground v.1.15,2016-07-30 18:02:00,
2016-07-30 14:08:00,83.9,71.3,29.93,West,271,4.0,8.0,66,0.00,,,0.00,Wunderground v.1.15,2016-07-30 18:08:00,
2016-07-30 14:13:00,84.2,71.2,29.93,WSW,251,4.0,9.0,65,0.00,,,0.00,Wunderground v.1.15,2016-07-30 18:13:00,
2016-07-30 14:18:00,84.3,71.2,29.93,South,172,3.0,7.0,65,0.00,,,0.00,Wunderground v.1.15,2016-07-30 18:18:00,
2016-07-30 14:23:00,84.2,71.6,29.93,SSE,167,3.0,7.0,66,0.00,,,0.00,Wunderground v.1.15,2016-07-30 18:23:00,
2016-07-30 14:28:00,84.8,71.3,29.92,SSW,206,0.0,5.0,64,0.00,,,0.00,Wunderground v.1.15,2016-07-30 18:28:00,
2016-07-30 14:33:00,85.1,71.1,29.92,WSW,251,0.0,7.0,63,0.00,,,0.00,Wunderground v.1.15,2016-07-30 18:33:00,
2016-07-30 14:38:00,84.7,70.7,29.92,WSW,247,6.0,7.0,63,0.00,,,0.00,Wunderground v.1.15,2016-07-30 18:38:00,
2016-07-30 14:43:00,84.2,69.8,29.92,West,267,6.0,9.0,62,0.00,,,0.00,Wunderground v.1.15,2016-07-30 18:43:00,
2016-07-30 14:48:00,83.9,70.4,29.92,West,276,2.0,6.0,64,0.00,,,0.00,Wunderground v.1.15,2016-07-30 18:48:00,
2016-07-30 14:53:00,83.5,70.5,29.92,West,262,5.0,8.0,65,0.00,,,0.00,Wunderground v.1.15,2016-07-30 18:53:00,
2016-07-30 14:58:00,83.2,71.1,29.91,West,262,3.0,6.0,67,0.00,,,0.00,Wunderground v.1.15,2016-07-30 18:58:00,
2016-07-30 15:03:00,82.8,72.0,29.91,West,280,3.0,7.0,70,0.00,,,0.00,Wunderground v.1.15,2016-07-30 19:03:00,
2016-07-30 15:08:00,83.1,71.4,29.92,NW,308,5.0,7.0,68,0.00,,,0.00,Wunderground v.1.15,2016-07-30 19:08:00,
2016-07-30 15:13:00,83.8,72.5,29.92,West,264,4.0,8.0,69,0.00,,,0.00,Wunderground v.1.15,2016-07-30 19:13:00,
2016-07-30 15:18:00,84.3,72.1,29.92,WSW,250,5.0,9.0,67,0.00,,,0.00,Wunderground v.1.15,2016-07-30 19:18:00,
2016-07-30 15:23:00,84.6,72.0,29.92,WSW,242,1.0,10.0,66,0.00,,,0.00,Wunderground v.1.15,2016-07-30 19:23:00,
2016-07-30 15:28:00,84.7,71.6,29.91,WNW,300,0.0,7.0,65,0.00,,,0.00,Wunderground v.1.15,2016-07-30 19:28:00,
2016-07-30 15:33:00,85.1,71.5,29.91,WNW,297,1.0,8.0,64,0.00,,,0.00,Wunderground v.1.15,2016-07-30 19:33:00,
2016-07-30 15:38:00,85.3,71.7,29.91,WNW,296,2.0,5.0,64,0.00,,,0.00,Wunderground v.1.15,2016-07-30 19:38:00,
2016-07-30 15:43:00,84.7,71.2,29.91,WSW,252,5.0,6.0,64,0.00,,,0.00,Wunderground v.1.15,2016-07-30 19:43:00,
2016-07-30 15:48:00,84.1,70.6,29.91,WSW,258,3.0,7.0,64,0.00,,,0.00,Wunderground v.1.15,2016-07-30 19:48:00,
2016-07-30 15:53:00,84.2,70.7,29.90,WSW,257,1.0,7.0,64,0.00,,,0.00,Wunderground v.1.15,2016-07-30 19:53:00,
2016-07-30 15:58:00,85.0,71.5,29.90,WSW,258,3.0,4.0,64,0.00,,,0.00,Wunderground v.1.15,2016-07-30 19:58:00,
2016-07-30 16:03:00,85.2,72.1,29.90,WSW,244,2.0,8.0,65,0.00,,,0.00,Wunderground v.1.15,2016-07-30 20:03:00,
2016-07-30 16:08:00,85.1,71.5,29.90,WNW,301,0.0,6.0,64,0.00,,,0.00,Wunderground v.1.15,2016-07-30 20:08:00,
2016-07-30 16:13:00,85.3,72.2,29.90,West,270,3.0,7.0,65,0.00,,,0.00,Wunderground v.1.15,2016-07-30 20:13:00,
2016-07-30 16:18:00,85.5,71.9,29.90,WNW,283,4.0,7.0,64,0.00,,,0.00,Wunderground v.1.15,2016-07-30 20:18:00,
2016-07-30 16:23:00,84.8,71.7,29.90,West,264,2.0,7.0,65,0.00,,,0.00,Wunderground v.1.15,2016-07-30 20:23:00,
2016-07-30 16:28:00,85.2,72.6,29.90,WSW,257,1.0,6.0,66,0.00,,,0.00,Wunderground v.1.15,2016-07-30 20:28:00,
2016-07-30 16:33:00,85.8,71.7,29.90,South,175,5.0,8.0,63,0.00,,,0.00,Wunderground v.1.15,2016-07-30 20:33:00,
2016-07-30 16:38:00,85.7,71.7,29.90,West,262,5.0,7.0,63,0.00,,,0.00,Wunderground v.1.15,2016-07-30 20:38:00,
2016-07-30 16:43:00,85.1,71.5,29.90,West,275,5.0,7.0,64,0.00,,,0.00,Wunderground v.1.15,2016-07-30 20:43:00,
2016-07-30 16:48:00,85.0,71.9,29.90,WNW,302,8.0,8.0,65,0.00,,,0.00,Wunderground v.1.15,2016-07-30 20:48:00,
2016-07-30 16:53:00,85.0,71.5,29.90,West,271,5.0,10.0,64,0.00,,,0.00,Wunderground v.1.15,2016-07-30 20:53:00,
2016-07-30 16:58:00,84.8,71.3,29.91,WNW,296,6.0,8.0,64,0.00,,,0.00,Wunderground v.1.15,2016-07-30 20:58:00,
2016-07-30 17:03:00,84.5,71.0,29.91,West,281,5.0,8.0,64,0.00,,,0.00,Wunderground v.1.15,2016-07-30 21:03:00,
2016-07-30 17:08:00,84.4,71.3,29.91,WSW,254,5.0,7.0,65,0.00,,,0.00,Wunderground v.1.15,2016-07-30 21:08:00,
2016-07-30 17:13:00,84.3,71.7,29.91,WSW,242,6.0,7.0,66,0.00,,,0.00,Wunderground v.1.15,2016-07-30 21:13:00,
2016-07-30 17:18:00,84.2,70.2,29.91,WSW,254,5.0,7.0,63,0.00,,,0.00,Wunderground v.1.15,2016-07-30 21:18:00,
2016-07-30 17:23:00,84.5,70.5,29.90,WSW,248,4.0,7.0,63,0.00,,,0.00,Wunderground v.1.15,2016-07-30 21:23:00,
2016-07-30 17:28:00,84.7,71.2,29.91,West,272,4.0,6.0,64,0.00,,,0.00,Wunderground v.1.15,2016-07-30 21:28:00,
2016-07-30 17:33:00,84.6,71.1,29.90,SW,220,2.0,8.0,64,0.00,,,0.00,Wunderground v.1.15,2016-07-30 21:33:00,
2016-07-30 17:38:00,84.5,71.0,29.91,West,261,2.0,6.0,64,0.00,,,0.00,Wunderground v.1.15,2016-07-30 21:38:00,
2016-07-30 17:44:00,84.3,70.8,29.90,West,259,2.0,6.0,64,0.00,,,0.00,Wunderground v.1.15,2016-07-30 21:44:00,
2016-07-30 17:49:00,84.3,70.8,29.91,West,261,1.0,5.0,64,0.00,,,0.00,Wunderground v.1.15,2016-07-30 21:49:00,
2016-07-30 17:54:00,84.3,71.2,29.91,WSW,258,3.0,5.0,65,0.00,,,0.00,Wunderground v.1.15,2016-07-30 21:54:00,
2016-07-30 17:59:00,84.2,70.7,29.91,West,265,2.0,5.0,64,0.00,,,0.00,Wunderground v.1.15,2016-07-30 21:59:00,
2016-07-30 18:04:00,84.1,70.1,29.91,WSW,238,3.0,9.0,63,0.00,,,0.00,Wunderground v.1.15,2016-07-30 22:04:00,
2016-07-30 18:09:00,84.2,71.2,29.90,WSW,246,4.0,6.0,65,0.00,,,0.00,Wunderground v.1.15,2016-07-30 22:09:00,
2016-07-30 18:14:00,84.5,71.0,29.90,WSW,244,3.0,7.0,64,0.00,,,0.00,Wunderground v.1.15,2016-07-30 22:14:00,
2016-07-30 18:19:00,84.8,69.9,29.90,WSW,242,6.0,7.0,61,0.00,,,0.00,Wunderground v.1.15,2016-07-30 22:19:00,
2016-07-30 18:24:00,85.0,70.5,29.90,SW,231,3.0,8.0,62,0.00,,,0.00,Wunderground v.1.15,2016-07-30 22:24:00,
2016-07-30 18:29:00,84.6,69.7,29.91,West,275,6.0,10.0,61,0.00,,,0.00,Wunderground v.1.15,2016-07-30 22:29:00,
2016-07-30 18:34:00,84.4,70.0,29.91,WNW,290,2.0,10.0,62,0.00,,,0.00,Wunderground v.1.15,2016-07-30 22:34:00,
2016-07-30 18:39:00,84.2,69.8,29.91,SSW,207,3.0,6.0,62,0.00,,,0.00,Wunderground v.1.15,2016-07-30 22:39:00,
2016-07-30 18:44:00,83.9,69.5,29.91,SSW,207,1.0,6.0,62,0.00,,,0.00,Wunderground v.1.15,2016-07-30 22:44:00,
2016-07-30 18:49:00,83.8,69.9,29.91,SSW,207,3.0,4.0,63,0.00,,,0.00,Wunderground v.1.15,2016-07-30 22:49:00,
2016-07-30 18:54:00,83.6,69.7,29.91,SSW,207,2.0,4.0,63,0.00,,,0.00,Wunderground v.1.15,2016-07-30 22:54:00,
2016-07-30 18:59:00,83.4,69.5,29.91,SSW,207,1.0,4.0,63,0.00,,,0.00,Wunderground v.1.15,2016-07-30 22:59:00,
2016-07-30 19:04:00,83.4,69.5,29.91,SSW,207,1.0,4.0,63,0.00,,,0.00,Wunderground v.1.15,2016-07-30 23:04:00,
2016-07-30 19:09:00,83.4,69.0,29.91,SSW,202,2.0,5.0,62,0.00,,,0.00,Wunderground v.1.15,2016-07-30 23:09:00,
2016-07-30 19:14:00,83.2,68.8,29.91,SSW,208,2.0,3.0,62,0.00,,,0.00,Wunderground v.1.15,2016-07-30 23:14:00,
2016-07-30 19:19:00,83.1,69.2,29.91,SSW,209,2.0,5.0,63,0.00,,,0.00,Wunderground v.1.15,2016-07-30 23:19:00,
2016-07-30 19:24:00,83.1,69.2,29.91,SW,217,6.0,7.0,63,0.00,,,0.00,Wunderground v.1.15,2016-07-30 23:24:00,
2016-07-30 19:29:00,83.5,69.1,29.91,SW,232,4.0,7.0,62,0.00,,,0.00,Wunderground v.1.15,2016-07-30 23:29:00,
2016-07-30 19:34:00,84.3,69.9,29.91,SW,232,1.0,2.0,62,0.00,,,0.00,Wunderground v.1.15,2016-07-30 23:34:00,
2016-07-30 19:39:00,84.4,70.0,29.91,SW,233,3.0,4.0,62,0.00,,,0.00,Wunderground v.1.15,2016-07-30 23:39:00,
2016-07-30 19:44:00,83.9,69.0,29.91,WSW,237,2.0,3.0,61,0.00,,,0.00,Wunderground v.1.15,2016-07-30 23:44:00,
2016-07-30 19:49:00,83.6,69.2,29.91,WSW,237,1.0,4.0,62,0.00,,,0.00,Wunderground v.1.15,2016-07-30 23:49:00,
2016-07-30 19:54:00,83.5,69.6,29.91,WSW,237,0.0,2.0,63,0.00,,,0.00,Wunderground v.1.15,2016-07-30 23:54:00,
2016-07-30 19:59:00,83.4,69.5,29.91,SW,236,2.0,4.0,63,0.00,,,0.00,Wunderground v.1.15,2016-07-30 23:59:00,
2016-07-30 20:04:00,83.6,70.1,29.90,SW,236,0.0,1.0,64,0.00,,,0.00,Wunderground v.1.15,2016-07-31 00:04:00,
2016-07-30 20:09:00,83.8,69.4,29.91,SW,233,3.0,7.0,62,0.00,,,0.00,Wunderground v.1.15,2016-07-31 00:09:00,
2016-07-30 20:14:00,83.5,69.6,29.91,SW,233,4.0,4.0,63,0.00,,,0.00,Wunderground v.1.15,2016-07-31 00:14:00,
2016-07-30 20:19:00,83.3,69.8,29.91,SW,233,3.0,4.0,64,0.00,,,0.00,Wunderground v.1.15,2016-07-31 00:19:00,
2016-07-30 20:24:00,83.0,69.6,29.91,SW,233,1.0,2.0,64,0.00,,,0.00,Wunderground v.1.15,2016-07-31 00:24:00,
2016-07-30 20:29:00,82.7,69.7,29.90,SW,233,2.0,5.0,65,0.00,,,0.00,Wunderground v.1.15,2016-07-31 00:29:00,
2016-07-30 20:34:00,82.4,69.9,29.90,SW,233,1.0,2.0,66,0.00,,,0.00,Wunderground v.1.15,2016-07-31 00:34:00,
2016-07-30 20:39:00,82.1,70.1,29.91,SW,233,3.0,5.0,67,0.00,,,0.00,Wunderground v.1.15,2016-07-31 00:39:00,
2016-07-30 20:44:00,81.7,70.5,29.91,SW,233,2.0,2.0,69,0.00,,,0.00,Wunderground v.1.15,2016-07-31 00:44:00,
2016-07-30 20:49:00,81.4,71.1,29.91,SW,230,2.0,5.0,71,0.00,,,0.00,Wunderground v.1.15,2016-07-31 00:49:00,
2016-07-30 20:54:00,81.1,71.2,29.91,SW,230,3.0,3.0,72,0.00,,,0.00,Wunderground v.1.15,2016-07-31 00:54:00,
2016-07-30 20:59:00,80.9,71.4,29.91,SW,230,1.0,5.0,73,0.00,,,0.00,Wunderground v.1.15,2016-07-31 00:59:00,
2016-07-30 21:04:00,80.6,71.5,29.91,SW,232,2.0,3.0,74,0.00,,,0.00,Wunderground v.1.15,2016-07-31 01:04:00,
2016-07-30 21:09:00,80.4,71.7,29.91,SW,232,2.0,3.0,75,0.00,,,0.00,Wunderground v.1.15,2016-07-31 01:09:00,
2016-07-30 21:14:00,80.2,71.9,29.91,SW,232,0.0,1.0,76,0.00,,,0.00,Wunderground v.1.15,2016-07-31 01:14:00,
2016-07-30 21:19:00,80.0,71.8,29.91,SW,231,0.0,4.0,76,0.00,,,0.00,Wunderground v.1.15,2016-07-31 01:19:00,
2016-07-30 21:24:00,79.8,71.9,29.92,SW,232,2.0,3.0,77,0.00,,,0.00,Wunderground v.1.15,2016-07-31 01:24:00,
2016-07-30 21:29:00,79.6,72.1,29.92,SW,232,2.0,4.0,78,0.00,,,0.00,Wunderground v.1.15,2016-07-31 01:29:00,
2016-07-30 21:34:00,79.4,71.9,29.92,SW,231,3.0,3.0,78,0.00,,,0.00,Wunderground v.1.15,2016-07-31 01:34:00,
2016-07-30 21:39:00,79.3,72.2,29.92,SW,231,2.0,4.0,79,0.00,,,0.00,Wunderground v.1.15,2016-07-31 01:39:00,
2016-07-30 21:44:00,79.1,72.0,29.92,SW,231,2.0,2.0,79,0.00,,,0.00,Wunderground v.1.15,2016-07-31 01:44:00,
2016-07-30 21:49:00,79.0,71.9,29.92,SW,231,0.0,4.0,79,0.00,,,0.00,Wunderground v.1.15,2016-07-31 01:49:00,
2016-07-30 21:54:00,78.9,72.2,29.92,SW,231,0.0,1.0,80,0.00,,,0.00,Wunderground v.1.15,2016-07-31 01:54:00,
2016-07-30 21:59:00,78.7,72.0,29.92,SW,231,0.0,1.0,80,0.00,,,0.00,Wunderground v.1.15,2016-07-31 01:59:00,